Time;durP1;ratioP1;P1;durP2;ratioP2;P2;SDS_P1;SDS_P2;PMS_P1;PMS_P2;Temp;Humidity;BMP_temperature;BMP_pressure;BME280_temperature;BME280_humidity;BME280_pressure;Samples;Min_cycle;Max_cycle;Signal;HPM_P1;HPM_P2
2022/01/22 00:00:45;;;;;;;0.00;0.00;;;6.10;99.90;;;;;;5054772;28;20045;-86
2022/01/22 00:03:11;;;;;;;0.75;0.10;;;6.10;99.90;;;;;;5055361;28;20076;-86
2022/01/22 00:05:37;;;;;;;0.00;0.00;;;6.40;99.90;;;;;;5038356;28;20532;-86
2022/01/22 00:08:04;;;;;;;0.00;0.00;;;6.10;99.90;;;;;;5038005;28;20133;-86
2022/01/22 00:10:30;;;;;;;0.00;0.00;;;6.20;99.90;;;;;;5054418;28;20060;-87
2022/01/22 00:13:08;;;;;;;0.00;0.00;;;6.40;99.90;;;;;;5054375;28;20497;-87
2022/01/22 00:15:35;;;;;;;0.00;0.00;;;6.50;99.90;;;;;;5055117;28;20489;-86
2022/01/22 00:18:02;;;;;;;0.13;0.13;;;6.50;99.90;;;;;;5038058;28;20088;-86
2022/01/22 00:20:31;;;;;;;0.17;0.17;;;6.20;99.90;;;;;;5037868;28;20102;-86
2022/01/22 00:22:57;;;;;;;0.25;0.03;;;6.20;99.90;;;;;;5053992;28;20057;-87
2022/01/22 00:25:23;;;;;;;0.00;0.00;;;6.40;99.90;;;;;;5038052;28;20075;-86
2022/01/22 00:27:50;;;;;;;0.00;0.00;;;6.20;99.90;;;;;;5037680;28;20473;-86
2022/01/22 00:30:21;;;;;;;0.00;0.00;;;6.40;99.90;;;;;;5037367;28;20044;-87
2022/01/22 00:32:48;;;;;;;0.00;0.00;;;6.20;99.90;;;;;;5037487;28;20129;-86
2022/01/22 00:35:14;;;;;;;0.00;0.00;;;6.30;99.90;;;;;;5037593;28;20095;-86
2022/01/22 00:37:43;;;;;;;0.00;0.00;;;6.20;99.90;;;;;;5036883;28;20190;-86
2022/01/22 00:40:10;;;;;;;0.00;0.00;;;6.40;99.90;;;;;;5054263;28;20055;-86
2022/01/22 00:42:38;;;;;;;0.55;0.20;;;6.20;99.90;;;;;;5053963;28;20049;-86
2022/01/22 00:45:04;;;;;;;0.00;0.00;;;6.30;99.90;;;;;;5054137;28;20397;-86
2022/01/22 00:47:30;;;;;;;0.00;0.00;;;6.30;99.90;;;;;;5037233;28;20084;-86
2022/01/22 00:49:56;;;;;;;0.00;0.00;;;6.30;99.90;;;;;;5037316;28;20092;-86
2022/01/22 00:52:21;;;;;;;0.00;0.00;;;6.30;99.90;;;;;;5054047;28;20037;-85
2022/01/22 00:54:47;;;;;;;0.00;0.00;;;6.20;99.90;;;;;;5037558;28;20048;-86
2022/01/22 00:57:13;;;;;;;0.00;0.00;;;6.60;99.90;;;;;;5037265;28;20041;-86
2022/01/22 00:59:39;;;;;;;0.00;0.00;;;6.50;99.90;;;;;;5053760;28;20076;-86
2022/01/22 01:02:05;;;;;;;0.28;0.10;;;6.60;99.90;;;;;;5037125;28;20041;-86
2022/01/22 01:04:34;;;;;;;0.00;0.00;;;6.30;99.90;;;;;;5053596;28;20045;-86
2022/01/22 01:06:59;;;;;;;2.75;1.17;;;6.30;99.90;;;;;;5036879;28;20045;-86
2022/01/22 01:09:25;;;;;;;0.00;0.00;;;6.30;99.90;;;;;;5053174;28;20128;-85
2022/01/22 01:11:56;;;;;;;0.00;0.00;;;6.60;99.90;;;;;;5053380;28;20085;-85
2022/01/22 01:14:38;;;;;;;0.00;0.00;;;6.30;99.90;;;;;;5053555;28;20049;-86
2022/01/22 01:36:00;;;;;;;0.80;0.80;;;6.30;99.90;;;;;;4976309;28;20576;-86
2022/01/22 01:38:26;;;;;;;0.00;0.00;;;6.30;99.90;;;;;;4976611;28;20137;-85
2022/01/22 01:41:02;;;;;;;0.00;0.00;;;6.30;99.90;;;;;;4976477;28;20142;-85
2022/01/22 01:43:34;;;;;;;0.00;0.00;;;6.30;99.90;;;;;;4975976;28;20558;-85
2022/01/22 01:45:59;;;;;;;0.00;0.00;;;6.30;99.90;;;;;;4976289;28;20453;-86
2022/01/22 01:48:29;;;;;;;0.15;0.15;;;6.40;99.90;;;;;;4960463;28;20050;-86
2022/01/22 01:50:58;;;;;;;2.80;0.10;;;6.30;99.90;;;;;;4977338;28;20061;-85
2022/01/22 01:58:28;;;;;;;0.00;0.00;;;6.40;99.90;;;;;;4976777;28;20053;-85
2022/01/22 02:00:54;;;;;;;0.63;0.35;;;7.40;99.90;;;;;;4960084;28;20498;-85
2022/01/22 02:03:20;;;;;;;0.30;0.30;;;7.00;99.90;;;;;;4977040;28;20133;-85
2022/01/22 02:05:45;;;;;;;0.93;0.10;;;6.30;99.90;;;;;;4976258;28;20553;-85
2022/01/22 02:08:13;;;;;;;0.00;0.00;;;6.40;99.90;;;;;;4976314;28;20047;-85
2022/01/22 02:10:44;;;;;;;0.00;0.00;;;7.90;99.90;;;;;;4960387;28;20174;-86
2022/01/22 02:24:10;;;;;;;0.08;0.08;;;6.40;99.90;;;;;;5052515;28;20873;-86
2022/01/22 02:26:37;;;;;;;0.00;0.00;;;6.40;99.90;;;;;;5052430;28;20393;-86
2022/01/22 02:29:03;;;;;;;0.00;0.00;;;6.40;99.90;;;;;;5052486;28;20083;-86
2022/01/22 02:31:42;;;;;;;0.85;0.40;;;6.40;99.90;;;;;;5052850;28;20048;-86
2022/01/22 02:36:43;;;;;;;0.00;0.00;;;6.50;99.90;;;;;;5052335;28;20057;-86
2022/01/22 02:41:37;;;;;;;0.10;0.10;;;6.50;99.90;;;;;;5052279;28;20198;-86
2022/01/22 02:44:11;;;;;;;0.00;0.00;;;6.40;99.90;;;;;;5035906;28;20052;-86
2022/01/22 02:46:41;;;;;;;0.00;0.00;;;6.50;99.90;;;;;;5052459;28;20060;-86
2022/01/22 02:49:07;;;;;;;0.00;0.00;;;6.60;99.90;;;;;;5035470;28;20079;-86
2022/01/22 02:51:33;;;;;;;0.00;0.00;;;6.50;99.90;;;;;;5036258;28;20531;-86
2022/01/22 02:54:00;;;;;;;5.38;1.40;;;6.60;99.90;;;;;;5035588;28;20049;-86
2022/01/22 02:56:26;;;;;;;0.00;0.00;;;6.50;99.90;;;;;;5052170;28;20041;-85
2022/01/22 02:58:53;;;;;;;0.00;0.00;;;6.90;99.90;;;;;;5035590;28;20041;-86
2022/01/22 03:01:23;;;;;;;0.00;0.00;;;6.50;99.90;;;;;;5035649;28;20096;-86
2022/01/22 03:03:49;;;;;;;0.17;0.17;;;6.60;99.90;;;;;;5052825;28;20053;-86
2022/01/22 03:06:14;;;;;;;0.20;0.10;;;6.50;99.90;;;;;;5034981;28;20068;-86
2022/01/22 03:08:41;;;;;;;0.00;0.00;;;6.90;99.90;;;;;;5035697;28;20056;-85
2022/01/22 03:11:17;;;;;;;0.00;0.00;;;6.50;99.90;;;;;;5055798;28;20057;-86
2022/01/22 03:18:43;;;;;;;0.00;0.00;;;6.50;99.90;;;;;;5055761;28;20067;-86
2022/01/22 03:29:09;;;;;;;0.00;0.00;;;6.60;99.90;;;;;;5055840;28;20060;-86
2022/01/22 03:31:36;;;;;;;0.00;0.00;;;6.50;99.90;;;;;;5055615;28;20048;-86
2022/01/22 03:34:02;;;;;;;0.00;0.00;;;6.50;99.90;;;;;;5038838;28;20543;-86
2022/01/22 03:36:33;;;;;;;0.00;0.00;;;6.60;99.90;;;;;;5055293;28;20048;-85
2022/01/22 03:39:00;;;;;;;0.00;0.00;;;6.50;99.90;;;;;;5055490;28;20051;-86
2022/01/22 03:41:25;;;;;;;0.00;0.00;;;6.60;99.90;;;;;;5056073;28;20447;-86
2022/01/22 03:43:52;;;;;;;0.00;0.00;;;6.50;99.90;;;;;;5055078;28;20029;-85
2022/01/22 03:46:18;;;;;;;0.00;0.00;;;6.70;99.90;;;;;;5055496;28;20068;-85
2022/01/22 03:48:44;;;;;;;0.00;0.00;;;6.60;99.90;;;;;;5038168;28;20083;-85
2022/01/22 03:51:10;;;;;;;0.00;0.00;;;6.80;99.90;;;;;;5038106;28;20076;-85
2022/01/22 03:53:35;;;;;;;0.00;0.00;;;6.60;99.90;;;;;;5054195;28;20076;-85
2022/01/22 03:56:06;;;;;;;0.00;0.00;;;6.60;99.90;;;;;;5055014;28;20041;-85
2022/01/22 03:58:35;;;;;;;1.25;0.00;;;6.70;99.90;;;;;;5038619;28;20088;-85
2022/01/22 04:03:57;;;;;;;0.00;0.00;;;6.70;99.90;;;;;;5055044;28;20053;-85
2022/01/22 04:08:59;;;;;;;0.00;0.00;;;6.50;99.90;;;;;;5055141;28;20153;-86
2022/01/22 04:11:25;;;;;;;0.00;0.00;;;6.50;99.90;;;;;;5037791;28;20484;-86
2022/01/22 04:13:57;;;;;;;0.00;0.00;;;6.50;99.90;;;;;;5054932;28;20051;-86
2022/01/22 04:16:23;;;;;;;0.00;0.00;;;6.50;99.90;;;;;;5054575;28;20045;-86
2022/01/22 04:27:12;;;;;;;0.20;0.20;;;6.50;99.90;;;;;;5054643;28;20053;-85
2022/01/22 04:29:39;;;;;;;0.00;0.00;;;6.50;99.90;;;;;;5037814;28;20037;-86
2022/01/22 04:32:05;;;;;;;0.00;0.00;;;6.50;99.90;;;;;;5037931;28;20055;-86
2022/01/22 04:34:31;;;;;;;0.00;0.00;;;6.50;99.90;;;;;;5037794;28;20450;-86
2022/01/22 04:36:57;;;;;;;0.00;0.00;;;6.60;99.90;;;;;;5054275;28;20041;-86
2022/01/22 04:39:25;;;;;;;0.00;0.00;;;6.50;99.90;;;;;;5053893;28;20424;-86
2022/01/22 04:41:53;;;;;;;0.00;0.00;;;6.50;99.90;;;;;;5054533;28;20045;-86
2022/01/22 04:44:19;;;;;;;0.00;0.00;;;6.50;99.90;;;;;;5037785;28;20055;-86
2022/01/22 04:47:30;;;;;;;0.00;0.00;;;6.50;99.90;;;;;;5054306;28;20520;-86
2022/01/22 04:52:42;;;;;;;0.00;0.00;;;6.50;99.90;;;;;;5054954;28;20045;-85
2022/01/22 04:55:10;;;;;;;0.00;0.00;;;6.50;99.90;;;;;;5054309;28;20048;-85
2022/01/22 04:57:43;;;;;;;0.00;0.00;;;6.50;99.90;;;;;;5037360;28;20481;-85
2022/01/22 05:00:12;;;;;;;0.00;0.00;;;6.50;99.90;;;;;;5037407;28;20045;-86
2022/01/22 05:02:39;;;;;;;0.00;0.00;;;6.50;99.90;;;;;;5053750;28;20053;-86
2022/01/22 05:05:06;;;;;;;0.30;0.15;;;6.50;99.90;;;;;;5037432;28;20059;-86
2022/01/22 05:07:31;;;;;;;0.00;0.00;;;6.50;99.90;;;;;;5053872;28;20087;-86
2022/01/22 05:09:57;;;;;;;0.00;0.00;;;6.50;99.90;;;;;;5053783;28;20143;-85
2022/01/22 05:12:23;;;;;;;0.00;0.00;;;6.50;99.90;;;;;;5053702;28;20538;-85
2022/01/22 05:14:49;;;;;;;0.00;0.00;;;6.50;99.90;;;;;;5036906;28;20052;-86
2022/01/22 05:17:17;;;;;;;0.00;0.00;;;6.40;99.90;;;;;;5053488;28;20072;-85
2022/01/22 05:24:59;;;;;;;0.00;0.00;;;6.50;99.90;;;;;;4996604;28;20453;-86
2022/01/22 05:33:02;;;;;;;0.00;0.00;;;6.40;99.90;;;;;;4975876;28;20046;-86
2022/01/22 05:38:15;;;;;;;5.28;0.95;;;6.40;99.90;;;;;;4976818;28;20051;-86
2022/01/22 05:40:40;;;;;;;0.08;0.08;;;6.40;99.90;;;;;;4960513;28;20066;-85
2022/01/22 05:43:09;;;;;;;0.00;0.00;;;6.60;99.90;;;;;;4977091;28;20474;-85
2022/01/22 05:45:34;;;;;;;0.03;0.03;;;6.40;99.90;;;;;;4960785;28;20512;-85
2022/01/22 05:48:00;;;;;;;0.00;0.00;;;6.40;99.90;;;;;;4976688;28;20145;-85
2022/01/22 05:50:47;;;;;;;0.03;0.00;;;6.50;99.90;;;;;;4960292;28;20387;-85
2022/01/22 05:53:27;;;;;;;0.00;0.00;;;6.50;99.90;;;;;;4976144;28;20620;-85
2022/01/22 06:01:23;;;;;;;0.00;0.00;;;7.30;99.90;;;;;;4899784;29;20059;-85
2022/01/22 06:03:49;;;;;;;0.00;0.00;;;6.60;99.90;;;;;;4916000;29;20064;-85
2022/01/22 06:06:15;;;;;;;0.00;0.00;;;6.40;99.90;;;;;;4907178;28;20044;-85
2022/01/22 06:08:47;;;;;;;0.00;0.00;;;6.30;99.90;;;;;;4992336;28;20038;-85
2022/01/22 06:11:21;;;;;;;0.22;0.10;;;6.70;99.90;;;;;;4992538;28;20085;-85
2022/01/22 06:13:50;;;;;;;0.00;0.00;;;6.40;99.90;;;;;;4992983;28;20058;-85
2022/01/22 06:16:20;;;;;;;0.00;0.00;;;6.40;99.90;;;;;;4960252;28;20076;-85
2022/01/22 06:18:46;;;;;;;0.00;0.00;;;6.50;99.90;;;;;;4960189;28;20421;-85
2022/01/22 06:21:12;;;;;;;0.00;0.00;;;6.60;99.90;;;;;;4992302;28;20042;-85
2022/01/22 06:23:40;;;;;;;0.00;0.00;;;6.50;99.90;;;;;;4991983;28;20050;-84
2022/01/22 06:26:07;;;;;;;0.00;0.00;;;6.70;99.90;;;;;;4959975;28;20061;-85
2022/01/22 06:28:33;;;;;;;0.00;0.00;;;6.60;99.90;;;;;;4959737;28;20054;-86
2022/01/22 06:33:44;;;;;;;;;;;6.40;99.90;;;;;;4992965;28;20366;-85
2022/01/22 06:36:10;;;;;;;0.00;0.00;;;6.50;99.90;;;;;;5027153;28;19927;-85
2022/01/22 06:38:36;;;;;;;0.00;0.00;;;6.50;99.90;;;;;;5052549;28;20488;-85
2022/01/22 06:43:46;;;;;;;0.00;0.00;;;6.50;99.90;;;;;;5054226;28;20102;-85
2022/01/22 06:46:12;;;;;;;0.00;0.00;;;6.50;99.90;;;;;;5039951;28;20053;-85
2022/01/22 06:48:38;;;;;;;0.00;0.00;;;6.50;99.90;;;;;;5039468;28;20041;-86
2022/01/22 06:51:04;;;;;;;0.00;0.00;;;6.50;99.90;;;;;;5056181;28;20049;-85
2022/01/22 06:53:29;;;;;;;0.00;0.00;;;6.60;99.90;;;;;;5039494;28;20114;-86
2022/01/22 06:55:59;;;;;;;0.00;0.00;;;6.50;99.90;;;;;;5039469;28;20045;-86
2022/01/22 06:58:25;;;;;;;0.00;0.00;;;6.50;99.90;;;;;;5039474;28;20393;-85
2022/01/22 07:00:51;;;;;;;0.00;0.00;;;6.50;99.90;;;;;;5039288;28;20052;-86
2022/01/22 07:03:17;;;;;;;0.00;0.00;;;6.50;99.90;;;;;;5039124;28;20049;-85
2022/01/22 07:05:42;;;;;;;0.00;0.00;;;6.50;99.90;;;;;;5039106;28;20063;-85
2022/01/22 07:08:08;;;;;;;0.22;0.22;;;6.50;99.90;;;;;;5055825;28;20396;-86
2022/01/22 07:10:34;;;;;;;1.38;0.47;;;6.50;99.90;;;;;;5038975;28;20065;-86
2022/01/22 07:13:00;;;;;;;0.00;0.00;;;6.50;99.90;;;;;;5039528;28;20049;-85
2022/01/22 07:15:28;;;;;;;0.03;0.03;;;6.50;99.90;;;;;;5055787;28;20044;-84
2022/01/22 07:17:55;;;;;;;0.00;0.00;;;6.50;99.90;;;;;;5055744;28;20045;-86
2022/01/22 07:20:28;;;;;;;0.00;0.00;;;6.50;99.90;;;;;;5056245;28;20134;-84
2022/01/22 07:23:01;;;;;;;0.00;0.00;;;6.40;99.90;;;;;;5038852;28;20061;-87
2022/01/22 07:25:28;;;;;;;0.80;0.60;;;6.50;99.90;;;;;;5037819;28;20041;-88
2022/01/22 07:27:54;;;;;;;0.00;0.00;;;6.50;99.90;;;;;;5036836;28;20050;-87
2022/01/22 07:30:20;;;;;;;0.00;0.00;;;6.70;99.90;;;;;;5037146;28;20048;-87
2022/01/22 07:32:46;;;;;;;0.10;0.10;;;6.60;99.90;;;;;;5053693;28;20542;-87
2022/01/22 07:35:15;;;;;;;0.22;0.20;;;6.50;99.90;;;;;;5036722;28;20056;-87
2022/01/22 07:37:41;;;;;;;0.00;0.00;;;6.50;99.90;;;;;;5053966;28;20045;-87
2022/01/22 07:40:09;;;;;;;0.00;0.00;;;6.90;99.90;;;;;;5037635;28;20536;-88
2022/01/22 07:42:35;;;;;;;0.00;0.00;;;6.50;99.90;;;;;;5053804;28;20052;-87
2022/01/22 07:45:01;;;;;;;0.00;0.00;;;7.60;99.90;;;;;;5036855;28;20044;-87
2022/01/22 07:47:27;;;;;;;0.00;0.00;;;6.50;99.90;;;;;;5037393;28;20084;-88
2022/01/22 07:49:53;;;;;;;0.03;0.00;;;6.60;99.90;;;;;;5037733;28;20091;-85
2022/01/22 07:52:18;;;;;;;0.00;0.00;;;6.50;99.90;;;;;;5054757;28;20056;-85
2022/01/22 07:54:44;;;;;;;0.00;0.00;;;6.70;99.90;;;;;;5037783;28;20053;-86
2022/01/22 07:57:10;;;;;;;0.00;0.00;;;6.50;99.90;;;;;;5053717;28;20052;-86
2022/01/22 07:59:36;;;;;;;0.00;0.00;;;6.50;99.90;;;;;;5037301;28;20057;-86
2022/01/22 08:02:03;;;;;;;0.08;0.00;;;6.50;99.90;;;;;;5038430;28;20502;-86
2022/01/22 08:04:29;;;;;;;0.00;0.00;;;6.50;99.90;;;;;;5054182;28;20110;-87
2022/01/22 08:06:57;;;;;;;0.00;0.00;;;6.70;99.90;;;;;;5037745;28;20053;-85
2022/01/22 08:09:23;;;;;;;0.75;0.75;;;6.50;99.90;;;;;;5037938;28;20044;-85
2022/01/22 08:11:49;;;;;;;0.00;0.00;;;7.00;99.90;;;;;;5038006;28;20136;-85
2022/01/22 08:14:16;;;;;;;0.00;0.00;;;6.50;99.90;;;;;;5037437;28;20489;-85
2022/01/22 08:16:44;;;;;;;0.00;0.00;;;6.60;99.90;;;;;;5037858;28;20048;-86
2022/01/22 08:19:10;;;;;;;0.00;0.00;;;6.60;99.90;;;;;;5037629;28;20084;-86
2022/01/22 08:21:35;;;;;;;0.00;0.00;;;6.60;99.90;;;;;;5053897;28;20049;-86
2022/01/22 08:24:01;;;;;;;0.00;0.00;;;6.80;99.90;;;;;;5036510;28;20381;-86
2022/01/22 08:26:32;;;;;;;0.00;0.00;;;6.70;99.90;;;;;;5037503;28;20097;-86
2022/01/22 08:29:00;;;;;;;0.65;0.10;;;6.60;99.90;;;;;;5037163;28;20459;-85
2022/01/22 08:36:43;;;;;;;0.00;0.00;;;6.60;99.90;;;;;;5053845;28;20059;-86
2022/01/22 08:39:09;;;;;;;5.88;0.88;;;6.60;99.90;;;;;;5054725;28;20140;-86
2022/01/22 08:41:36;;;;;;;0.00;0.00;;;6.60;99.90;;;;;;5037111;28;20119;-86
2022/01/22 08:44:05;;;;;;;0.00;0.00;;;6.60;99.90;;;;;;5037158;28;20041;-85
2022/01/22 08:46:32;;;;;;;0.00;0.00;;;6.60;99.90;;;;;;5053270;28;20052;-86
2022/01/22 08:48:57;;;;;;;0.00;0.00;;;6.60;99.90;;;;;;5036354;28;20067;-86
2022/01/22 08:51:23;;;;;;;0.10;0.00;;;6.80;99.90;;;;;;5053799;28;20124;-86
2022/01/22 08:53:50;;;;;;;0.00;0.00;;;6.70;99.90;;;;;;5037870;28;20061;-85
2022/01/22 08:56:34;;;;;;;0.00;0.00;;;6.80;99.90;;;;;;5037231;28;20375;-84
2022/01/22 08:59:00;;;;;;;0.00;0.00;;;6.80;99.90;;;;;;5037613;28;20045;-86
2022/01/22 09:01:26;;;;;;;0.00;0.00;;;6.80;99.90;;;;;;5054389;28;20107;-85
2022/01/22 09:03:52;;;;;;;0.00;0.00;;;6.90;99.90;;;;;;5054082;28;20070;-86
2022/01/22 09:06:18;;;;;;;0.00;0.00;;;7.10;99.90;;;;;;5052971;28;20048;-86
2022/01/22 09:08:50;;;;;;;0.00;0.00;;;7.10;99.90;;;;;;5053117;28;20045;-86
2022/01/22 09:11:18;;;;;;;0.00;0.00;;;7.20;99.90;;;;;;5036955;28;20049;-86
2022/01/22 09:13:43;;;;;;;0.00;0.00;;;7.20;99.90;;;;;;5053504;28;20503;-85
2022/01/22 09:16:09;;;;;;;0.00;0.00;;;7.20;99.90;;;;;;5036733;28;20070;-86
2022/01/22 09:18:35;;;;;;;0.00;0.00;;;7.10;99.90;;;;;;5053324;28;20056;-85
2022/01/22 09:21:04;;;;;;;0.00;0.00;;;7.10;99.90;;;;;;5053400;28;20048;-86
2022/01/22 09:23:31;;;;;;;0.00;0.00;;;7.00;99.90;;;;;;5036037;28;20053;-86
2022/01/22 09:25:58;;;;;;;0.25;0.25;;;7.00;99.90;;;;;;5037038;28;20056;-86
2022/01/22 09:28:25;;;;;;;0.00;0.00;;;6.90;99.90;;;;;;5053073;28;20504;-86
2022/01/22 09:30:51;;;;;;;0.00;0.00;;;6.90;99.90;;;;;;5053225;28;20064;-87
2022/01/22 09:33:17;;;;;;;0.00;0.00;;;7.00;99.90;;;;;;5036687;28;20048;-85
2022/01/22 09:35:43;;;;;;;0.00;0.00;;;6.90;99.90;;;;;;5052682;28;20091;-85
2022/01/22 09:38:09;;;;;;;0.00;0.00;;;6.90;99.90;;;;;;5053097;28;20052;-85
2022/01/22 09:40:35;;;;;;;0.00;0.00;;;7.10;99.90;;;;;;5052983;28;20040;-85
2022/01/22 09:43:03;;;;;;;0.00;0.00;;;6.90;99.90;;;;;;5036803;28;20041;-85
2022/01/22 09:45:30;;;;;;;0.00;0.00;;;6.90;99.90;;;;;;5053163;28;20047;-85
2022/01/22 09:47:58;;;;;;;0.00;0.00;;;6.90;99.90;;;;;;5035803;28;20119;-85
2022/01/22 09:50:27;;;;;;;0.00;0.00;;;6.90;99.90;;;;;;5037046;28;20048;-85
2022/01/22 09:52:53;;;;;;;0.00;0.00;;;6.90;99.90;;;;;;5052478;28;20053;-85
2022/01/22 09:55:19;;;;;;;0.00;0.00;;;6.90;99.90;;;;;;5052669;28;20049;-87
2022/01/22 09:57:45;;;;;;;0.00;0.00;;;6.90;99.90;;;;;;5035862;28;20131;-85
2022/01/22 10:00:22;;;;;;;0.00;0.00;;;7.30;99.90;;;;;;5051956;28;20212;-85
2022/01/22 10:02:56;;;;;;;0.00;0.00;;;6.90;99.90;;;;;;5036839;28;20556;-85
2022/01/22 10:05:34;;;;;;;0.35;0.20;;;6.90;99.90;;;;;;5036349;28;20049;-87
2022/01/22 10:08:31;;;;;;;0.00;0.00;;;7.20;99.90;;;;;;5036134;28;20045;-84
2022/01/22 10:10:58;;;;;;;0.00;0.00;;;7.00;99.90;;;;;;5036186;28;20049;-87
2022/01/22 10:13:41;;;;;;;0.00;0.00;;;7.00;99.90;;;;;;5052765;28;20045;-87
2022/01/22 10:16:31;;;;;;;0.00;0.00;;;7.10;99.90;;;;;;5052976;28;20049;-87
2022/01/22 10:19:15;;;;;;;0.00;0.00;;;7.10;99.90;;;;;;4959668;28;20065;-87
2022/01/22 10:21:43;;;;;;;0.00;0.00;;;7.30;99.90;;;;;;4959875;28;20054;-87
2022/01/22 10:24:38;;;;;;;0.00;0.00;;;8.50;99.90;;;;;;4959811;28;20510;-87
2022/01/22 10:30:03;;;;;;;0.00;0.00;;;7.20;99.90;;;;;;4975776;28;20177;-88
2022/01/22 10:32:46;;;;;;;0.00;0.00;;;7.30;99.90;;;;;;4975556;28;20042;-88
2022/01/22 10:35:15;;;;;;;0.00;0.00;;;7.30;99.90;;;;;;4976026;28;20129;-87
2022/01/22 10:37:41;;;;;;;0.00;0.00;;;7.40;99.90;;;;;;4976083;28;20161;-87
2022/01/22 10:40:23;;;;;;;0.00;0.00;;;7.40;99.90;;;;;;4960519;28;20054;-87
2022/01/22 10:42:50;;;;;;;0.00;0.00;;;7.50;99.90;;;;;;4959212;28;20054;-87
2022/01/22 10:45:24;;;;;;;0.00;0.00;;;7.80;99.90;;;;;;4959198;28;20053;-87
2022/01/22 10:47:50;;;;;;;0.00;0.00;;;7.60;99.90;;;;;;4974885;28;20616;-87
2022/01/22 10:50:23;;;;;;;0.00;0.00;;;7.60;99.90;;;;;;4975422;28;20141;-87
2022/01/22 10:52:53;;;;;;;0.00;0.00;;;7.70;99.90;;;;;;4976036;28;20058;-87
2022/01/22 10:55:20;;;;;;;0.00;0.00;;;7.70;99.90;;;;;;4992844;28;20049;-87
2022/01/22 10:58:08;;;;;;;0.00;0.00;;;7.70;99.90;;;;;;5052340;28;20053;-87
2022/01/22 11:00:36;;;;;;;0.00;0.00;;;7.70;99.90;;;;;;5052183;28;20049;-87
2022/01/22 11:03:21;;;;;;;0.00;0.00;;;7.70;99.90;;;;;;5052847;28;20045;-87
2022/01/22 11:05:48;;;;;;;0.00;0.00;;;7.70;99.90;;;;;;5035596;28;20144;-87
2022/01/22 11:08:14;;;;;;;0.28;0.13;;;7.70;99.90;;;;;;5035424;28;20397;-86
2022/01/22 11:10:44;;;;;;;0.15;0.05;;;7.70;99.90;;;;;;5035873;28;20045;-86
2022/01/22 11:13:10;;;;;;;0.00;0.00;;;7.70;99.90;;;;;;5053128;28;20046;-86
2022/01/22 11:15:41;;;;;;;0.00;0.00;;;7.70;99.90;;;;;;5035576;28;20051;-86
2022/01/22 11:18:09;;;;;;;0.00;0.00;;;7.70;99.90;;;;;;5048964;28;20582;-87
2022/01/22 11:20:36;;;;;;;0.00;0.00;;;7.70;99.90;;;;;;5035815;28;20056;-87
2022/01/22 11:23:02;;;;;;;0.00;0.00;;;7.70;99.90;;;;;;5052118;28;20057;-87
2022/01/22 11:25:29;;;;;;;0.00;0.00;;;7.70;99.90;;;;;;5052018;28;20103;-86
2022/01/22 11:27:57;;;;;;;0.00;0.00;;;7.70;99.90;;;;;;5052449;28;20045;-87
2022/01/22 11:30:25;;;;;;;1.15;0.20;;;7.60;99.90;;;;;;5053182;28;20459;-87
2022/01/22 11:33:00;;;;;;;0.20;0.20;;;7.60;99.90;;;;;;5055949;28;20041;-87
2022/01/22 11:35:42;;;;;;;0.00;0.00;;;7.60;99.90;;;;;;5039214;28;20501;-87
2022/01/22 11:38:12;;;;;;;2.83;0.88;;;7.60;99.90;;;;;;5039111;28;20057;-87
2022/01/22 11:40:38;;;;;;;0.10;0.10;;;7.60;99.90;;;;;;5055769;28;20140;-87
2022/01/22 11:43:19;;;;;;;0.00;0.00;;;7.60;99.90;;;;;;5039015;28;20088;-87
2022/01/22 11:45:52;;;;;;;0.00;0.00;;;8.10;99.90;;;;;;5056621;28;20366;-87
2022/01/22 11:48:28;;;;;;;0.10;0.10;;;7.50;99.90;;;;;;5039246;28;20415;-87
2022/01/22 11:51:24;;;;;;;0.00;0.00;;;7.50;99.90;;;;;;5038774;28;20059;-87
2022/01/22 11:53:57;;;;;;;0.00;0.00;;;7.50;99.90;;;;;;5039191;28;20053;-87
2022/01/22 11:56:27;;;;;;;0.00;0.00;;;7.60;99.90;;;;;;5055446;28;20045;-87
2022/01/22 11:58:56;;;;;;;0.00;0.00;;;7.60;99.90;;;;;;5055493;28;20084;-87
2022/01/22 12:01:53;;;;;;;0.00;0.00;;;7.50;99.90;;;;;;5038891;28;20127;-86
2022/01/22 12:04:24;;;;;;;0.00;0.00;;;7.50;99.90;;;;;;5039086;28;20049;-86
2022/01/22 12:07:02;;;;;;;0.00;0.00;;;7.60;99.90;;;;;;5039278;28;20048;-86
2022/01/22 12:15:20;;;;;;;0.00;0.00;;;7.50;99.90;;;;;;5055210;28;20056;-86
2022/01/22 12:17:56;;;;;;;0.00;0.00;;;7.50;99.90;;;;;;5053824;28;20056;-87
2022/01/22 12:23:06;;;;;;;0.00;0.00;;;7.50;99.90;;;;;;5054929;28;20049;-87
2022/01/22 12:25:35;;;;;;;0.00;0.00;;;7.40;99.90;;;;;;5037681;28;20409;-90
2022/01/22 12:28:03;;;;;;;0.00;0.00;;;7.40;99.90;;;;;;5038412;28;20045;-94
2022/01/22 12:30:38;;;;;;;2.35;1.27;;;7.40;99.90;;;;;;5021591;28;20045;-90
2022/01/22 12:33:11;;;;;;;0.20;0.00;;;7.40;99.90;;;;;;5037096;28;20063;-90
2022/01/22 12:35:41;;;;;;;0.00;0.00;;;7.50;99.90;;;;;;5054003;28;20408;-89
2022/01/22 12:38:26;;;;;;;0.00;0.00;;;7.40;99.90;;;;;;5054211;28;20045;-90
2022/01/22 12:40:59;;;;;;;0.00;0.00;;;7.40;99.90;;;;;;5030947;28;20128;-93
2022/01/22 12:43:30;;;;;;;0.00;0.00;;;7.60;99.90;;;;;;5054549;28;20044;-90
2022/01/22 12:46:00;;;;;;;0.00;0.00;;;7.40;99.90;;;;;;5037240;28;20114;-92
2022/01/22 12:48:31;;;;;;;0.00;0.00;;;7.50;99.90;;;;;;5045976;28;20044;-89
2022/01/22 12:51:05;;;;;;;0.00;0.00;;;7.60;99.90;;;;;;5036452;28;20045;-88
2022/01/22 12:53:32;;;;;;;0.00;0.00;;;7.50;99.90;;;;;;5035907;28;20373;-94
2022/01/22 12:58:27;;;;;;;0.00;0.00;;;7.50;99.90;;;;;;5054047;28;20128;-94
2022/01/22 13:01:11;;;;;;;0.15;0.15;;;7.50;99.90;;;;;;5038351;28;20451;-94
2022/01/22 13:03:40;;;;;;;0.00;0.00;;;7.40;99.90;;;;;;5051871;28;20056;-92
2022/01/22 13:06:07;;;;;;;0.00;0.00;;;7.50;99.90;;;;;;5038138;28;20110;-93
2022/01/22 13:08:33;;;;;;;0.00;0.00;;;7.50;99.90;;;;;;5038100;28;20045;-93
2022/01/22 13:11:02;;;;;;;0.05;0.00;;;7.40;99.90;;;;;;5054622;28;20049;-93
2022/01/22 13:13:29;;;;;;;0.00;0.00;;;7.40;99.90;;;;;;5034345;28;20053;-93
2022/01/22 13:16:03;;;;;;;1.73;0.43;;;7.30;99.90;;;;;;5053112;28;20094;-92
2022/01/22 13:18:43;;;;;;;2.42;0.20;;;7.40;99.90;;;;;;5035158;28;20044;-90
2022/01/22 13:21:11;;;;;;;1.17;0.50;;;7.30;99.90;;;;;;5034761;28;20044;-92
2022/01/22 13:23:37;;;;;;;0.00;0.00;;;7.40;99.90;;;;;;5036263;28;20052;-91
2022/01/22 13:26:04;;;;;;;0.38;0.38;;;7.40;99.90;;;;;;5037916;28;20057;-91
2022/01/22 13:28:34;;;;;;;0.00;0.00;;;7.40;99.90;;;;;;5035678;28;20055;-93
2022/01/22 13:31:08;;;;;;;6.05;0.95;;;7.30;99.90;;;;;;5037547;28;20373;-91
2022/01/22 13:36:15;;;;;;;0.00;0.00;;;7.70;99.90;;;;;;5055663;28;20048;-93
2022/01/22 13:39:00;;;;;;;0.00;0.00;;;7.50;99.90;;;;;;5037268;28;20496;-91
2022/01/22 13:49:49;;;;;;;0.00;0.00;;;7.50;99.90;;;;;;4965711;28;20494;-90
2022/01/22 13:52:16;;;;;;;2.45;0.43;;;7.70;99.90;;;;;;4956966;28;20054;-91
2022/01/22 13:54:48;;;;;;;0.00;0.00;;;7.50;99.90;;;;;;4976841;28;20395;-89
2022/01/22 13:57:20;;;;;;;0.95;0.57;;;7.40;99.90;;;;;;4976948;28;20102;-90
2022/01/22 13:59:48;;;;;;;1.65;0.55;;;7.80;99.90;;;;;;4960037;28;20093;-89
2022/01/22 14:04:52;;;;;;;0.00;0.00;;;7.80;99.90;;;;;;4976938;28;20062;-89
2022/01/22 14:07:27;;;;;;;0.00;0.00;;;7.40;99.90;;;;;;4976813;28;20453;-91
2022/01/22 14:10:03;;;;;;;0.00;0.00;;;7.40;99.90;;;;;;4969513;28;20048;-90
2022/01/22 14:12:40;;;;;;;0.00;0.00;;;7.40;99.90;;;;;;4979379;28;20097;-90
2022/01/22 14:15:12;;;;;;;0.00;0.00;;;7.70;99.90;;;;;;4961163;28;20054;-88
2022/01/22 14:18:22;;;;;;;0.00;0.00;;;7.30;99.90;;;;;;4974277;28;20572;-90
2022/01/22 14:20:52;;;;;;;0.00;0.00;;;7.60;99.90;;;;;;4898737;28;20065;-91
2022/01/22 14:23:30;;;;;;;0.00;0.00;;;7.40;99.90;;;;;;4914957;29;20420;-90
2022/01/22 14:25:59;;;;;;;0.35;0.35;;;7.30;99.90;;;;;;4909622;29;20047;-89
2022/01/22 14:28:42;;;;;;;1.30;0.85;;;7.40;99.90;;;;;;4929724;29;20054;-89
2022/01/22 14:31:33;;;;;;;0.00;0.00;;;7.40;99.90;;;;;;4921756;28;20055;-90
2022/01/22 14:34:13;;;;;;;0.00;0.00;;;7.30;99.90;;;;;;4935732;29;20051;-90
2022/01/22 14:36:39;;;;;;;0.10;0.10;;;7.30;99.90;;;;;;4917496;29;20051;-90
2022/01/22 14:43:46;;;;;;;0.30;0.00;;;7.30;99.90;;;;;;4938204;29;20448;-89
2022/01/22 14:44:57;;;;;;;0.00;0.00;;;8.40;99.90;;;;;;4935125;29;20530;-87
2022/01/22 14:47:25;;;;;;;0.00;0.00;;;7.30;99.90;;;;;;4938363;29;20176;-88
2022/01/22 14:50:00;;;;;;;0.00;0.00;;;7.40;99.90;;;;;;4907346;28;20047;-88
2022/01/22 14:52:26;;;;;;;0.00;0.00;;;7.20;99.90;;;;;;5005346;28;20501;-88
2022/01/22 14:54:56;;;;;;;0.20;0.20;;;7.30;99.90;;;;;;5033496;28;20103;-88
2022/01/22 14:57:27;;;;;;;0.00;0.00;;;7.20;99.90;;;;;;5052316;28;20091;-88
2022/01/22 14:59:53;;;;;;;0.00;0.00;;;7.30;99.90;;;;;;5049544;28;20083;-88
2022/01/22 15:02:19;;;;;;;0.00;0.00;;;7.20;99.90;;;;;;5035365;28;20045;-88
2022/01/22 15:04:44;;;;;;;0.00;0.00;;;7.20;99.90;;;;;;5054897;28;20037;-88
2022/01/22 15:07:14;;;;;;;0.00;0.00;;;7.90;99.90;;;;;;5040540;28;20393;-88
2022/01/22 15:09:43;;;;;;;0.80;0.35;;;7.10;99.90;;;;;;5040010;28;20424;-89
2022/01/22 15:12:09;;;;;;;0.00;0.00;;;7.30;99.90;;;;;;5039973;28;20439;-88
2022/01/22 15:14:36;;;;;;;0.00;0.00;;;7.10;99.90;;;;;;5055990;28;20086;-90
2022/01/22 15:19:44;;;;;;;0.00;0.00;;;7.10;99.90;;;;;;5052920;28;20055;-88
2022/01/22 15:22:17;;;;;;;0.00;0.00;;;7.10;99.90;;;;;;5039549;28;20053;-87